This is the latest recevied weather packets stored in our database for station/object W3EJE-13. If no packets are shown the sender has not sent any weather packets the latest 10 day(s).
| Time | Temp. | Humidity | Pressure | Rain* | Wind** | Luminosity | Snow |
|---|---|---|---|---|---|---|---|
| 1777413291 | 18.89° C | 83% | 1016.5 hPa | 0 mm | - | 198 W/m² | - |
| 1777412987 | 19.44° C | 83% | 1016.6 hPa | 0 mm | - | 115 W/m² | - |
| 1777412685 | 18.33° C | 84% | 1016.4 hPa | 0 mm | - | 438 W/m² | - |
| 1777412384 | 18.33° C | 85% | 1016.5 hPa | 0 mm | - | 325 W/m² | - |
| 1777412078 | 18.33° C | 87% | 1016.5 hPa | 0 mm | - | 177 W/m² | - |
| 1777411773 | 17.78° C | 87% | 1016.5 hPa | 0 mm | - | 153 W/m² | - |
| 1777411467 | 18.33° C | 86% | 1016.5 hPa | 0 mm | - | 144 W/m² | - |
| 1777411162 | 18.89° C | 84% | 1016.5 hPa | 0 mm | - | 355 W/m² | - |
| 1777410862 | 18.89° C | 85% | 1016.5 hPa | 0 mm | - | 366 W/m² | - |
| 1777410561 | 18.33° C | 87% | 1016.5 hPa | 0 mm | - | 372 W/m² | - |
| 1777410261 | 18.33° C | 89% | 1016.4 hPa | 0 mm | - | 456 W/m² | - |
| 1777409956 | 16.67° C | 93% | 1016.8 hPa | 0 mm | - | 518 W/m² | - |
| 1777409651 | 16.67° C | 95% | 1016.6 hPa | 0 mm | - | 240 W/m² | - |
| 1777409348 | 16.67° C | 95% | 1016.7 hPa | 0 mm | - | 187 W/m² | - |
| 1777409043 | 16.11° C | 96% | 1016.9 hPa | 0 mm | - | 338 W/m² | - |
| 1777408739 | 16.11° C | 95% | 1017.1 hPa | 0 mm | - | 133 W/m² | - |
| 1777408430 | 16.67° C | 94% | 1017.2 hPa | 0 mm | - | 134 W/m² | - |
| 1777408125 | 16.11° C | 95% | 1017.2 hPa | 0 mm | - | 143 W/m² | - |
| 1777407820 | 16.11° C | 96% | 1017.2 hPa | 0 mm | - | 144 W/m² | - |
| 1777407517 | 16.11° C | 97% | 1017.3 hPa | 0 mm | - | 214 W/m² | - |
| 1777407211 | 15.56° C | 97% | 1017.4 hPa | 0 mm | - | 186 W/m² | - |
| 1777406907 | 15.56° C | 97% | 1017.3 hPa | 0 mm | - | 139 W/m² | - |
| 1777406601 | 15.56° C | 97% | 1017.1 hPa | 0 mm | - | 193 W/m² | - |
| 1777406298 | 15.56° C | 97% | 1017.3 hPa | 0 mm | - | 191 W/m² | - |
| 1777405997 | 15.56° C | 97% | 1017.4 hPa | 0 mm | - | 188 W/m² | - |
* Rain latest hour (hover to see other rain measurements)
** Current wind speed in m/s (hover to see current wind gust speed)